Time;durP1;ratioP1;P1;durP2;ratioP2;P2;SDS_P1;SDS_P2;PMS_P1;PMS_P2;Temp;Humidity;BMP_temperature;BMP_pressure;BME280_temperature;BME280_humidity;BME280_pressure;Samples;Min_cycle;Max_cycle;Signal;HPM_P1;HPM_P2
2023/10/02 03:31:41;;;;;;;13.87;8.10;;;15.70;99.90;;;;;;5949435;23;20404;-88
2023/10/02 03:34:33;;;;;;;10.40;6.90;;;15.90;99.90;;;;;;4917232;29;20995;-90
2023/10/02 03:37:32;;;;;;;9.47;6.40;;;;;;;;;;4997815;28;20483;-89
2023/10/02 03:40:20;;;;;;;11.87;7.93;;;15.70;99.90;;;;;;4996337;28;20448;-88
2023/10/02 03:43:34;;;;;;;8.80;7.30;;;15.60;99.90;;;;;;4997150;28;20799;-89
2023/10/02 03:52:19;;;;;;;11.77;6.67;;;15.60;99.90;;;;;;4992700;28;20456;-89
2023/10/02 03:54:58;;;;;;;12.87;6.70;;;;;;;;;;4997511;28;20504;-90
2023/10/02 04:03:28;;;;;;;11.70;6.53;;;;;;;;;;4998971;28;20801;-89
2023/10/02 04:09:55;;;;;;;13.27;7.57;;;15.50;99.90;;;;;;4999358;28;20507;-89
2023/10/02 04:18:59;;;;;;;12.70;7.43;;;;;;;;;;5000578;28;20738;-89
2023/10/02 04:21:37;;;;;;;9.53;6.63;;;;;;;;;;5004070;28;20530;-89
2023/10/02 04:24:10;;;;;;;11.50;7.53;;;;;;;;;;5021629;28;20447;-90
2023/10/02 04:26:54;;;;;;;11.50;7.03;;;;;;;;;;5021281;28;20444;-89
2023/10/02 04:29:28;;;;;;;13.40;7.83;;;;;;;;;;5021660;28;20428;-90
2023/10/02 04:35:57;;;;;;;13.80;8.20;;;15.50;99.90;;;;;;4938301;29;20825;-89
2023/10/02 04:41:29;;;;;;;16.27;9.10;;;15.40;99.90;;;;;;4920654;29;20455;-90
2023/10/02 04:44:05;;;;;;;10.80;7.40;;;;;;;;;;5000880;28;20460;-89
2023/10/02 04:46:45;;;;;;;12.30;7.40;;;;;;;;;;5018740;28;20440;-90
2023/10/02 04:52:53;;;;;;;9.70;6.60;;;;;;;;;;5019143;28;20456;-89
2023/10/02 04:55:23;;;;;;;12.30;7.47;;;15.30;99.90;;;;;;5021080;28;20509;-89
2023/10/02 04:58:09;;;;;;;10.00;6.67;;;15.40;99.90;;;;;;5004689;28;20454;-89
2023/10/02 05:00:44;;;;;;;19.13;8.97;;;;;;;;;;5003805;28;20482;-90
2023/10/02 05:03:18;;;;;;;12.37;7.27;;;;;;;;;;5004277;28;20436;-89
2023/10/02 05:06:16;;;;;;;13.17;7.90;;;;;;;;;;4998792;28;20452;-89
2023/10/02 05:09:39;;;;;;;11.33;7.50;;;15.30;99.90;;;;;;4999247;28;20486;-89
2023/10/02 05:12:22;;;;;;;13.23;7.23;;;;;;;;;;4988399;28;20814;-90
2023/10/02 05:15:11;;;;;;;12.67;8.90;;;;;;;;;;5006251;28;20428;-89
2023/10/02 05:17:44;;;;;;;12.73;8.50;;;;;;;;;;5004665;28;20475;-88
2023/10/02 05:20:38;;;;;;;14.63;9.40;;;;;;;;;;5002968;28;21024;-88
2023/10/02 05:23:23;;;;;;;15.67;8.33;;;15.20;99.90;;;;;;5000431;28;20817;-88
2023/10/02 05:25:54;;;;;;;11.97;7.87;;;;;;;;;;4986435;28;20484;-88
2023/10/02 05:28:42;;;;;;;11.13;7.70;;;;;;;;;;4999690;28;20504;-87
2023/10/02 05:31:40;;;;;;;15.27;7.10;;;15.00;99.90;;;;;;4997949;28;20479;-87
2023/10/02 05:34:21;;;;;;;13.40;7.90;;;;;;;;;;4998517;28;20975;-87
2023/10/02 05:37:41;;;;;;;11.87;7.20;;;15.10;99.90;;;;;;4998673;28;20452;-88
2023/10/02 05:43:18;;;;;;;15.37;8.57;;;15.00;99.90;;;;;;5019528;28;20432;-87
2023/10/02 05:45:50;;;;;;;12.83;8.57;;;14.80;99.90;;;;;;5019496;28;20484;-89
2023/10/02 05:48:37;;;;;;;14.63;8.40;;;;;;;;;;5020145;28;20508;-88
2023/10/02 05:51:12;;;;;;;13.87;8.80;;;15.00;99.90;;;;;;5012438;28;20497;-88
2023/10/02 05:53:53;;;;;;;16.57;9.10;;;15.10;99.90;;;;;;5001813;28;20495;-88
2023/10/02 05:56:27;;;;;;;14.70;9.53;;;15.00;63.50;;;;;;5000776;28;20421;-90
2023/10/02 05:58:55;;;;;;;16.47;9.67;;;15.10;2.70;;;;;;5000645;28;20840;-89
2023/10/02 06:01:26;;;;;;;17.93;8.20;;;15.10;1.00;;;;;;4999970;28;20472;-88
2023/10/02 06:04:00;;;;;;;13.73;8.87;;;15.30;99.90;;;;;;4999760;28;20457;-88
2023/10/02 06:06:35;;;;;;;14.40;8.73;;;15.20;29.80;;;;;;4998756;28;20996;-88
2023/10/02 06:09:03;;;;;;;14.67;8.97;;;15.10;1.00;;;;;;4997863;28;20476;-87
2023/10/02 06:11:33;;;;;;;15.53;8.87;;;15.20;1.00;;;;;;4997539;28;20486;-87
2023/10/02 06:14:10;;;;;;;16.00;8.83;;;15.00;1.00;;;;;;4997640;28;20456;-88
2023/10/02 06:16:39;;;;;;;14.47;8.87;;;15.20;1.00;;;;;;4997637;28;20436;-87
2023/10/02 06:19:13;;;;;;;14.40;8.60;;;16.00;1.00;;;;;;4995808;28;20449;-87
2023/10/02 06:21:46;;;;;;;21.67;9.57;;;15.20;1.00;;;;;;4999807;28;20495;-90
2023/10/02 06:24:27;;;;;;;14.20;9.17;;;15.40;1.00;;;;;;5002751;28;20435;-89
2023/10/02 06:26:57;;;;;;;20.83;10.37;;;15.40;1.00;;;;;;5004157;28;20437;-90
2023/10/02 06:29:29;;;;;;;19.77;10.03;;;15.40;1.00;;;;;;5003670;28;20452;-91
2023/10/02 06:32:05;;;;;;;15.97;10.30;;;15.50;1.00;;;;;;5001961;28;20480;-91
2023/10/02 06:34:43;;;;;;;17.00;10.20;;;15.50;1.00;;;;;;5003716;28;20464;-89
2023/10/02 06:37:16;;;;;;;12.60;9.43;;;15.50;1.00;;;;;;5001244;28;20443;-91
2023/10/02 06:39:45;;;;;;;15.20;9.27;;;15.60;1.00;;;;;;5000154;28;20791;-93
2023/10/02 06:42:17;;;;;;;15.80;10.30;;;15.70;1.00;;;;;;4998180;28;20571;-92
2023/10/02 06:45:01;;;;;;;16.80;8.07;;;15.80;1.00;;;;;;4998582;28;20452;-92
2023/10/02 06:47:34;;;;;;;17.47;10.30;;;15.80;1.00;;;;;;5009260;28;20479;-89
2023/10/02 06:50:21;;;;;;;12.17;8.90;;;;;;;;;;5019137;28;20413;-89
2023/10/02 06:52:49;;;;;;;17.53;11.30;;;;;;;;;;5019160;28;20436;-89
2023/10/02 06:55:19;;;;;;;16.50;10.33;;;16.00;1.00;;;;;;5019037;28;20436;-90
2023/10/02 06:57:52;;;;;;;17.37;9.80;;;15.90;99.90;;;;;;5015973;28;20437;-90
2023/10/02 07:00:20;;;;;;;24.77;10.77;;;16.00;99.90;;;;;;5016911;28;20475;-90
2023/10/02 07:02:56;;;;;;;14.17;8.83;;;;;;;;;;5014539;28;20444;-89
2023/10/02 07:05:27;;;;;;;13.97;9.33;;;;;;;;;;5018561;28;20440;-91
2023/10/02 07:08:01;;;;;;;19.20;10.90;;;16.00;99.90;;;;;;5016267;28;20482;-89
2023/10/02 07:10:41;;;;;;;16.67;9.60;;;;;;;;;;5000601;28;20475;-90
2023/10/02 07:19:48;;;;;;;17.10;9.80;;;16.70;99.90;;;;;;4995663;28;20952;-91
2023/10/02 07:22:35;;;;;;;15.40;9.53;;;16.40;99.90;;;;;;4996136;28;20484;-90
2023/10/02 07:25:20;;;;;;;16.50;9.27;;;16.40;99.90;;;;;;4996805;28;20452;-90
2023/10/02 07:49:28;;;;;;;16.93;9.20;;;17.10;1.00;;;;;;4929713;29;20489;-90
2023/10/02 08:02:40;;;;;;;13.90;8.50;;;17.50;99.90;;;;;;4831161;29;20629;-91
2023/10/02 08:15:02;;;;;;;12.53;8.87;;;18.00;99.90;;;;;;4956737;29;20479;-89
2023/10/02 08:18:16;;;;;;;13.97;10.10;;;18.10;99.90;;;;;;4941193;29;20688;-89
2023/10/02 08:21:13;;;;;;;15.33;10.33;;;18.30;99.90;;;;;;4880160;29;20510;-89
2023/10/02 08:26:59;;;;;;;11.93;8.43;;;18.40;99.90;;;;;;4992478;28;20441;-89
2023/10/02 08:29:52;;;;;;;13.27;8.43;;;18.70;99.90;;;;;;5013960;28;20491;-90
2023/10/02 08:35:21;;;;;;;12.20;8.97;;;18.90;99.90;;;;;;1481150;26;21003;-90
2023/10/02 08:45:14;;;;;;;10.87;7.57;;;19.10;1.00;;;;;;5468701;23;20530;-89
2023/10/02 08:51:49;;;;;;;14.53;9.10;;;19.30;1.00;;;;;;4874742;29;20609;-90
2023/10/02 08:57:52;;;;;;;18.10;8.87;;;19.40;1.00;;;;;;4931574;26;20457;-90
2023/10/02 09:08:01;;;;;;;13.07;7.53;;;19.60;1.00;;;;;;4942143;29;20428;-89
2023/10/02 10:54:45;;;;;;;20.53;13.80;;;21.90;99.90;;;;;;4735583;30;20594;-87
2023/10/02 12:50:47;;;;;;;;;;;;;;;;;;;;;
2023/10/02 14:16:26;;;;;;;9.63;6.43;;;23.10;99.90;;;;;;4941180;29;20468;-86
2023/10/02 14:43:52;;;;;;;6.23;4.60;;;23.50;1.00;;;;;;5092293;23;20493;-87
2023/10/02 15:37:39;;;;;;;11.10;6.20;;;22.80;1.00;;;;;;5052826;23;20482;-86
2023/10/02 15:41:06;;;;;;;7.70;5.00;;;22.60;99.90;;;;;;4907208;29;20476;-87
2023/10/02 16:46:06;;;;;;;15.07;9.83;;;21.30;99.90;;;;;;4730238;30;20450;-86
2023/10/02 19:50:31;;;;;;;20.10;14.33;;;19.50;99.90;;;;;;4861298;29;20486;-88
2023/10/02 19:53:57;;;;;;;20.87;13.90;;;19.40;1.00;;;;;;4927788;29;20485;-89
2023/10/02 20:23:50;;;;;;;20.43;15.47;;;19.40;1.00;;;;;;4889965;29;20443;-89
2023/10/02 20:26:17;;;;;;;24.83;15.37;;;19.40;1.00;;;;;;5010678;28;20471;-88
2023/10/02 20:28:44;;;;;;;16.63;14.00;;;19.20;99.90;;;;;;5002539;28;20492;-87
2023/10/02 20:31:13;;;;;;;19.33;14.20;;;19.40;1.00;;;;;;4999943;28;20599;-87
2023/10/02 20:33:41;;;;;;;18.13;13.93;;;19.10;1.00;;;;;;4999697;28;20463;-87
2023/10/02 20:36:09;;;;;;;23.70;15.20;;;19.30;1.00;;;;;;4998410;28;20452;-87
2023/10/02 20:38:39;;;;;;;20.20;13.40;;;19.30;1.00;;;;;;4999774;28;20460;-87
2023/10/02 20:41:08;;;;;;;21.20;14.90;;;19.30;99.90;;;;;;5004322;28;20472;-88
2023/10/02 20:43:35;;;;;;;19.87;14.30;;;19.30;98.00;;;;;;5003191;28;20460;-88
2023/10/02 20:46:12;;;;;;;23.63;14.90;;;19.10;99.90;;;;;;5005109;28;20539;-87
2023/10/02 21:02:52;;;;;;;20.77;14.53;;;19.20;1.00;;;;;;4985001;28;20460;-88
2023/10/02 22:10:52;;;;;;;17.77;13.07;;;18.10;1.00;;;;;;4890080;29;20476;-87
2023/10/02 22:47:59;;;;;;;16.70;12.60;;;17.80;21.10;;;;;;5033368;23;20498;-87
2023/10/02 22:50:46;;;;;;;15.60;12.47;;;18.10;78.20;;;;;;4997253;28;20476;-88
2023/10/02 22:53:22;;;;;;;16.43;12.40;;;;;;;;;;5017221;28;20452;-87
2023/10/02 22:59:11;;;;;;;17.40;12.23;;;18.10;1.00;;;;;;5007634;28;20446;-87
2023/10/02 23:02:16;;;;;;;;;;;;;;;;;;;;;
2023/10/02 23:05:01;;;;;;;18.70;12.03;;;18.00;1.00;;;;;;5002168;28;20462;-87
2023/10/02 23:08:12;;;;;;;;;;;;;;;;;;;;;
2023/10/02 23:10:52;;;;;;;26.63;17.67;;;18.00;1.00;;;;;;4998065;28;20468;-86
2023/10/02 23:13:29;;;;;;;17.23;13.13;;;17.90;1.00;;;;;;5000039;28;20436;-86
2023/10/02 23:16:15;;;;;;;26.93;14.47;;;17.90;99.90;;;;;;4998034;28;20863;-87
2023/10/02 23:18:55;;;;;;;20.40;13.07;;;17.80;99.90;;;;;;4998067;28;20972;-87
2023/10/02 23:22:04;;;;;;;19.57;13.60;;;17.80;99.90;;;;;;5008702;28;20418;-87
2023/10/02 23:24:39;;;;;;;19.90;12.37;;;17.80;99.90;;;;;;5018944;28;20455;-86
2023/10/02 23:27:17;;;;;;;19.10;12.70;;;;;;;;;;5018877;28;20501;-87
2023/10/02 23:29:47;;;;;;;17.70;12.07;;;;;;;;;;5016787;28;20460;-87
2023/10/02 23:32:19;;;;;;;18.37;13.07;;;;;;;;;;5017784;28;20469;-86
2023/10/02 23:34:55;;;;;;;19.60;13.20;;;17.70;99.90;;;;;;5014435;28;20442;-86
2023/10/02 23:37:24;;;;;;;25.50;15.60;;;;;;;;;;5002522;28;20469;-87
2023/10/02 23:40:00;;;;;;;21.57;15.60;;;17.70;99.90;;;;;;4997992;28;20445;-87
2023/10/02 23:42:52;;;;;;;20.93;15.07;;;17.60;99.90;;;;;;4998301;28;20432;-87
2023/10/02 23:45:22;;;;;;;24.33;14.00;;;;;;;;;;4998544;28;20478;-87
2023/10/02 23:48:00;;;;;;;20.60;13.20;;;17.60;75.90;;;;;;4997864;28;20487;-87
2023/10/02 23:50:36;;;;;;;18.60;13.07;;;17.60;55.70;;;;;;5013184;28;20479;-86
2023/10/02 23:53:14;;;;;;;17.23;13.50;;;17.50;99.90;;;;;;5017245;28;20443;-85
2023/10/02 23:55:58;;;;;;;22.57;12.70;;;17.50;99.90;;;;;;5001028;28;20457;-88
2023/10/02 23:58:39;;;;;;;19.17;12.27;;;17.50;1.00;;;;;;4996536;28;20462;-87
